Time;durP1;ratioP1;P1;durP2;ratioP2;P2;SDS_P1;SDS_P2;PMS_P1;PMS_P2;Temp;Humidity;BMP_temperature;BMP_pressure;BME280_temperature;BME280_humidity;BME280_pressure;Samples;Min_cycle;Max_cycle;Signal;HPM_P1;HPM_P2
2021/10/03 00:02:05;;;;;;;20.60;19.40;;;;;;;;;;5016471;28;20416;-86
2021/10/03 00:04:36;;;;;;;20.43;19.33;;;;;;;;;;5015967;28;20416;-87
2021/10/03 00:07:04;;;;;;;21.63;19.80;;;;;;;;;;5016432;28;20521;-87
2021/10/03 00:09:32;;;;;;;21.20;20.00;;;;;;;;;;5016513;28;20409;-87
2021/10/03 00:11:59;;;;;;;20.97;19.67;;;;;;;;;;5016491;28;20410;-87
2021/10/03 00:14:27;;;;;;;21.47;20.27;;;;;;;;;;5016317;28;20768;-87
2021/10/03 00:16:54;;;;;;;20.40;19.23;;;;;;;;;;5016740;28;20519;-87
2021/10/03 00:19:22;;;;;;;20.93;19.73;;;;;;;;;;5016124;28;20485;-87
2021/10/03 00:21:51;;;;;;;21.47;20.27;;;;;;;;;;5016470;28;21069;-87
2021/10/03 00:24:19;;;;;;;20.47;19.27;;;;;;;;;;5016533;28;20417;-87
2021/10/03 00:26:47;;;;;;;21.93;20.50;;;;;;;;;;5016291;28;20899;-86
2021/10/03 00:29:14;;;;;;;19.93;18.93;;;;;;;;;;5016550;28;20448;-87
2021/10/03 00:31:41;;;;;;;20.63;19.53;;;;;;;;;;5016057;28;20418;-87
2021/10/03 00:34:09;;;;;;;21.77;20.17;;;;;;;;;;5016498;28;20441;-86
2021/10/03 00:36:36;;;;;;;20.90;19.80;;;;;;;;;;5016169;28;20442;-87
2021/10/03 00:39:05;;;;;;;20.90;19.57;;;;;;;;;;5015960;28;20441;-87
2021/10/03 00:41:33;;;;;;;20.80;19.70;;;;;;;;;;5016115;28;20435;-87
2021/10/03 00:44:01;;;;;;;20.83;19.73;;;;;;;;;;5016144;28;20793;-87
2021/10/03 00:46:28;;;;;;;20.37;19.17;;;;;;;;;;5015822;28;20480;-87
2021/10/03 00:48:55;;;;;;;20.57;19.47;;;;;;;;;;5015730;28;20408;-87
2021/10/03 00:51:23;;;;;;;20.70;19.53;;;;;;;;;;5015768;28;20424;-87
2021/10/03 00:53:50;;;;;;;20.90;19.70;;;;;;;;;;5014852;28;20432;-87
2021/10/03 00:56:19;;;;;;;20.03;18.93;;;;;;;;;;5015844;28;20459;-87
2021/10/03 00:58:47;;;;;;;20.50;19.40;;;;;;;;;;5015655;28;20885;-87
2021/10/03 01:01:14;;;;;;;21.50;20.03;;;;;;;;;;5015495;28;20430;-87
2021/10/03 01:03:42;;;;;;;20.30;19.20;;;;;;;;;;5015533;28;20464;-87
2021/10/03 01:06:10;;;;;;;20.80;19.60;;;;;;;;;;5015619;28;20479;-87
2021/10/03 01:08:37;;;;;;;20.70;19.60;;;;;;;;;;5015483;28;20918;-87
2021/10/03 01:11:05;;;;;;;20.93;19.83;;;;;;;;;;5015632;28;20849;-87
2021/10/03 01:13:34;;;;;;;20.00;18.90;;;;;;;;;;5015527;28;20918;-87
2021/10/03 01:16:01;;;;;;;20.60;19.40;;;;;;;;;;5015234;28;20441;-87
2021/10/03 01:18:29;;;;;;;20.30;19.20;;;;;;;;;;5015061;28;20478;-87
2021/10/03 01:20:56;;;;;;;21.37;20.03;;;;;;;;;;5015472;28;20460;-87
2021/10/03 01:23:25;;;;;;;20.63;19.43;;;;;;;;;;5015449;28;20407;-87
2021/10/03 01:25:53;;;;;;;20.30;19.20;;;;;;;;;;5014893;28;20456;-87
2021/10/03 01:28:20;;;;;;;19.70;18.70;;;;;;;;;;5015460;28;20417;-87
2021/10/03 01:30:49;;;;;;;21.00;19.90;;;;;;;;;;5015169;28;20468;-87
2021/10/03 01:33:17;;;;;;;20.57;19.47;;;;;;;;;;5015177;28;20479;-87
2021/10/03 01:35:45;;;;;;;20.23;19.17;;;;;;;;;;5015065;28;20435;-87
2021/10/03 01:38:15;;;;;;;21.40;20.20;;;;;;;;;;5015085;28;20442;-87
2021/10/03 01:40:44;;;;;;;21.67;20.17;;;;;;;;;;5015176;28;20459;-87
2021/10/03 01:43:11;;;;;;;20.33;19.20;;;;;;;;;;5015030;28;20447;-87
2021/10/03 01:45:39;;;;;;;21.03;19.93;;;;;;;;;;5014711;28;20924;-87
2021/10/03 01:48:08;;;;;;;20.97;19.87;;;;;;;;;;5014996;28;20450;-87
2021/10/03 01:50:38;;;;;;;21.07;19.97;;;;;;;;;;5013682;28;20509;-87
2021/10/03 01:53:06;;;;;;;20.63;19.53;;;;;;;;;;5014912;28;20412;-87
2021/10/03 01:55:34;;;;;;;21.57;20.37;;;;;;;;;;5014773;28;20518;-87
2021/10/03 01:58:03;;;;;;;20.63;19.43;;;;;;;;;;5014677;28;20432;-87
2021/10/03 02:00:30;;;;;;;19.93;18.60;;;;;;;;;;5014533;28;20464;-87
2021/10/03 02:02:58;;;;;;;20.20;19.10;;;;;;;;;;5014523;28;20512;-87
2021/10/03 02:05:26;;;;;;;21.70;20.30;;;;;;;;;;5014697;28;20480;-87
2021/10/03 02:07:53;;;;;;;21.30;19.90;;;;;;;;;;5014529;28;20462;-87
2021/10/03 02:10:21;;;;;;;20.83;19.73;;;;;;;;;;5014599;28;20415;-87
2021/10/03 02:12:49;;;;;;;20.37;19.17;;;;;;;;;;5014725;28;20524;-86
2021/10/03 02:15:19;;;;;;;21.20;20.00;;;;;;;;;;5014203;28;20422;-87
2021/10/03 02:17:46;;;;;;;20.60;19.40;;;;;;;;;;5014344;28;20495;-87
2021/10/03 02:20:15;;;;;;;20.60;19.43;;;;;;;;;;5014010;28;20464;-87
2021/10/03 02:22:43;;;;;;;21.33;20.20;;;;;;;;;;5014154;28;20444;-87
2021/10/03 02:25:11;;;;;;;21.10;19.70;;;;;;;;;;5013193;28;20425;-87
2021/10/03 02:27:38;;;;;;;21.40;20.10;;;;;;;;;;5013626;28;20471;-87
2021/10/03 02:30:08;;;;;;;21.87;20.50;;;;;;;;;;5013094;28;20440;-87
2021/10/03 02:32:37;;;;;;;21.10;19.83;;;;;;;;;;5014338;28;20433;-87
2021/10/03 02:35:04;;;;;;;21.23;20.13;;;;;;;;;;5013743;28;20419;-87
2021/10/03 02:37:32;;;;;;;21.47;20.07;;;;;;;;;;5014098;28;20886;-87
2021/10/03 02:39:59;;;;;;;21.70;20.50;;;;;;;;;;5013833;28;20931;-89
2021/10/03 02:42:27;;;;;;;20.97;19.80;;;;;;;;;;5012988;28;20421;-89
2021/10/03 02:44:54;;;;;;;21.03;19.53;;;;;;;;;;5014008;28;20456;-87
2021/10/03 02:47:22;;;;;;;21.63;20.53;;;;;;;;;;5014011;28;20452;-89
2021/10/03 02:49:51;;;;;;;21.40;19.93;;;;;;;;;;5013283;28;20441;-88
2021/10/03 02:52:18;;;;;;;22.00;20.80;;;;;;;;;;5013979;28;20429;-89
2021/10/03 02:54:46;;;;;;;21.20;20.10;;;;;;;;;;5013314;28;20448;-89
2021/10/03 02:57:14;;;;;;;21.73;20.30;;;;;;;;;;5014072;28;20452;-89
2021/10/03 02:59:42;;;;;;;23.60;21.33;;;;;;;;;;5012763;28;20433;-89
2021/10/03 03:02:09;;;;;;;21.67;20.27;;;;;;;;;;5014032;28;20416;-89
2021/10/03 03:04:37;;;;;;;20.60;19.40;;;;;;;;;;5013921;28;20455;-89
2021/10/03 03:07:06;;;;;;;21.13;19.83;;;;;;;;;;5013958;28;20852;-89
2021/10/03 03:09:33;;;;;;;21.60;20.20;;;;;;;;;;5013982;28;20448;-89
2021/10/03 03:12:01;;;;;;;20.77;19.43;;;;;;;;;;5014290;28;20421;-88
2021/10/03 03:14:28;;;;;;;21.00;19.70;;;;;;;;;;5014152;28;20452;-89
2021/10/03 03:16:56;;;;;;;21.00;19.70;;;;;;;;;;5013963;28;20503;-89
2021/10/03 03:19:23;;;;;;;21.37;20.17;;;;;;;;;;5013898;28;20480;-89
2021/10/03 03:21:51;;;;;;;21.83;20.60;;;;;;;;;;5012554;28;20453;-89
2021/10/03 03:24:20;;;;;;;20.97;19.67;;;;;;;;;;5013536;28;20449;-89
2021/10/03 03:26:47;;;;;;;21.33;20.07;;;;;;;;;;5013607;28;20480;-89
2021/10/03 03:29:14;;;;;;;21.80;20.60;;;;;;;;;;5012750;28;20441;-88
2021/10/03 03:31:42;;;;;;;20.90;19.77;;;;;;;;;;5014114;28;20438;-90
2021/10/03 03:34:09;;;;;;;22.40;21.03;;;;;;;;;;5013881;28;20460;-89
2021/10/03 03:36:36;;;;;;;22.27;20.97;;;;;;;;;;5013526;28;20425;-88
2021/10/03 03:39:04;;;;;;;21.63;20.23;;;;;;;;;;5017351;28;20461;-89
2021/10/03 03:41:32;;;;;;;21.50;20.17;;;;;;;;;;5017351;28;20449;-89
2021/10/03 03:44:00;;;;;;;22.07;20.87;;;;;;;;;;5017345;28;20442;-88
2021/10/03 03:46:27;;;;;;;22.03;20.73;;;;;;;;;;5016912;28;20407;-89
2021/10/03 03:48:55;;;;;;;23.10;21.80;;;;;;;;;;5017355;28;20818;-89
2021/10/03 03:51:22;;;;;;;22.57;21.07;;;;;;;;;;5016952;28;20914;-89
2021/10/03 03:53:49;;;;;;;21.93;20.63;;;;;;;;;;5016840;28;20450;-89
2021/10/03 03:56:17;;;;;;;22.47;21.03;;;;;;;;;;5015526;28;20440;-89
2021/10/03 03:58:46;;;;;;;22.40;21.20;;;;;;;;;;5016853;28;20441;-87
2021/10/03 04:01:13;;;;;;;22.80;21.40;;;;;;;;;;5017202;28;20432;-89
2021/10/03 04:03:40;;;;;;;22.10;20.90;;;;;;;;;;5016950;28;20768;-89
2021/10/03 04:06:08;;;;;;;21.50;20.00;;;;;;;;;;5016653;28;20454;-89
2021/10/03 04:08:35;;;;;;;22.10;20.63;;;;;;;;;;5016764;28;20486;-88
2021/10/03 04:11:02;;;;;;;21.63;20.33;;;;;;;;;;5016775;28;20428;-89
2021/10/03 04:13:30;;;;;;;22.13;20.83;;;;;;;;;;5016774;28;20452;-88
2021/10/03 04:15:59;;;;;;;22.23;20.97;;;;;;;;;;5015243;28;20437;-89
2021/10/03 04:18:26;;;;;;;21.70;20.50;;;;;;;;;;5015274;28;20463;-89
2021/10/03 04:20:54;;;;;;;24.47;22.87;;;;;;;;;;5016317;28;20441;-89
2021/10/03 04:23:21;;;;;;;22.70;21.40;;;;;;;;;;5016532;28;20428;-89
2021/10/03 04:25:49;;;;;;;22.27;20.97;;;;;;;;;;5016093;28;21271;-89
2021/10/03 04:28:18;;;;;;;22.70;21.40;;;;;;;;;;5015589;28;20814;-89
2021/10/03 04:30:46;;;;;;;22.40;21.10;;;;;;;;;;5016710;28;20409;-89
2021/10/03 04:33:15;;;;;;;22.07;20.87;;;;;;;;;;5016521;28;20438;-89
2021/10/03 04:35:42;;;;;;;22.40;21.10;;;;;;;;;;5015400;28;20454;-90
2021/10/03 04:38:09;;;;;;;22.10;20.80;;;;;;;;;;5016333;28;20450;-88
2021/10/03 04:40:37;;;;;;;22.00;20.67;;;;;;;;;;5015808;28;20465;-89
2021/10/03 04:43:04;;;;;;;23.00;21.50;;;;;;;;;;5015735;28;20450;-89
2021/10/03 04:45:32;;;;;;;22.50;21.20;;;;;;;;;;5016256;28;20463;-88
2021/10/03 04:48:01;;;;;;;23.83;22.33;;;;;;;;;;5015746;28;20470;-90
2021/10/03 04:50:30;;;;;;;22.50;21.20;;;;;;;;;;5015335;28;20397;-90
2021/10/03 04:52:58;;;;;;;22.20;20.90;;;;;;;;;;5015102;28;20437;-89
2021/10/03 04:55:25;;;;;;;22.63;21.30;;;;;;;;;;5015875;28;20429;-89
2021/10/03 04:57:52;;;;;;;22.07;20.80;;;;;;;;;;5015534;28;20449;-89
2021/10/03 05:00:20;;;;;;;22.23;21.03;;;;;;;;;;5015659;28;20416;-89
2021/10/03 05:02:47;;;;;;;22.57;21.27;;;;;;;;;;5015370;28;20917;-89
2021/10/03 05:05:15;;;;;;;23.20;21.80;;;;;;;;;;5015792;28;20988;-89
2021/10/03 05:07:43;;;;;;;22.60;21.20;;;;;;;;;;5015330;28;20459;-89
2021/10/03 05:10:11;;;;;;;22.80;21.50;;;;;;;;;;5015645;28;20424;-89
2021/10/03 05:12:38;;;;;;;23.27;21.77;;;;;;;;;;5015450;28;20432;-88
2021/10/03 05:15:06;;;;;;;24.00;22.40;;;;;;;;;;5015545;28;20439;-89
2021/10/03 05:17:34;;;;;;;22.40;21.17;;;;;;;;;;5014772;28;20830;-88
2021/10/03 05:20:01;;;;;;;23.73;22.23;;;;;;;;;;5015303;28;20457;-88
2021/10/03 05:22:29;;;;;;;22.80;21.47;;;;;;;;;;5015313;28;20468;-88
2021/10/03 05:24:58;;;;;;;23.90;22.40;;;;;;;;;;5015607;28;20423;-89
2021/10/03 05:27:25;;;;;;;24.37;22.83;;;;;;;;;;5015575;28;21068;-89
2021/10/03 05:29:52;;;;;;;24.50;22.97;;;;;;;;;;5014209;28;20449;-89
2021/10/03 05:32:20;;;;;;;23.70;22.20;;;;;;;;;;5014233;28;20507;-89
2021/10/03 05:34:47;;;;;;;23.47;22.03;;;;;;;;;;5013908;28;20423;-89
2021/10/03 05:37:15;;;;;;;23.03;21.43;;;;;;;;;;5015071;28;20916;-89
2021/10/03 05:39:42;;;;;;;23.57;22.17;;;;;;;;;;5015098;28;20916;-89
2021/10/03 05:42:11;;;;;;;24.27;22.67;;;;;;;;;;5015096;28;20883;-89
2021/10/03 05:44:38;;;;;;;23.37;21.97;;;;;;;;;;5015350;28;20472;-89
2021/10/03 05:47:06;;;;;;;24.87;23.17;;;;;;;;;;5015499;28;20424;-90
2021/10/03 05:49:33;;;;;;;23.40;21.80;;;;;;;;;;5015492;28;20428;-89
2021/10/03 05:52:01;;;;;;;23.07;21.67;;;;;;;;;;5015369;28;20773;-89
2021/10/03 05:54:28;;;;;;;24.40;22.73;;;;;;;;;;5015532;28;20456;-90
2021/10/03 05:56:55;;;;;;;23.70;22.30;;;;;;;;;;5013627;28;20418;-89
2021/10/03 05:59:24;;;;;;;24.23;22.77;;;;;;;;;;5014900;28;20457;-89
2021/10/03 06:01:52;;;;;;;23.90;22.37;;;;;;;;;;5013594;28;20418;-90
2021/10/03 06:04:19;;;;;;;23.37;21.90;;;;;;;;;;5014726;28;20477;-87
2021/10/03 06:06:46;;;;;;;23.57;22.00;;;;;;;;;;5018650;28;20407;-88
2021/10/03 06:09:14;;;;;;;24.83;23.23;;;;;;;;;;5033978;28;20997;-89
2021/10/03 06:11:42;;;;;;;23.77;22.37;;;;;;;;;;5034462;28;20524;-89
2021/10/03 06:14:09;;;;;;;24.40;22.90;;;;;;;;;;5034425;28;20456;-87
2021/10/03 06:16:42;;;;;;;23.47;21.87;;;;;;;;;;5034144;28;20454;-88
2021/10/03 06:19:09;;;;;;;24.30;22.80;;;;;;;;;;5033950;28;20570;-89
2021/10/03 06:21:39;;;;;;;24.33;22.83;;;;;;;;;;5034191;28;20447;-89
2021/10/03 06:24:07;;;;;;;24.83;23.27;;;;;;;;;;5033999;28;20521;-90
2021/10/03 06:26:34;;;;;;;23.73;22.20;;;;;;;;;;5034297;28;20440;-88
2021/10/03 06:29:03;;;;;;;23.47;22.07;;;;;;;;;;5034292;28;20451;-88
2021/10/03 06:31:30;;;;;;;23.70;22.10;;;;;;;;;;5033959;28;20441;-88
2021/10/03 06:33:59;;;;;;;23.23;21.73;;;;;;;;;;5033851;28;20410;-89
2021/10/03 06:36:27;;;;;;;24.17;22.67;;;;;;;;;;5034272;28;20411;-88
2021/10/03 06:38:55;;;;;;;23.77;22.33;;;;;;;;;;5034217;28;20462;-88
2021/10/03 06:41:22;;;;;;;24.30;22.83;;;;;;;;;;5034105;28;20816;-89
2021/10/03 06:43:49;;;;;;;24.80;23.20;;;;;;;;;;5034086;28;20438;-87
2021/10/03 06:46:17;;;;;;;24.80;23.10;;;;;;;;;;5034302;28;20426;-89
2021/10/03 06:48:44;;;;;;;25.07;23.13;;;;;;;;;;5033726;28;20493;-89
2021/10/03 06:51:14;;;;;;;24.97;23.40;;;;;;;;;;5034144;28;20424;-89
2021/10/03 06:53:41;;;;;;;23.43;22.03;;;;;;;;;;5033865;28;20912;-88
2021/10/03 06:56:09;;;;;;;24.53;23.00;;;;;;;;;;5034111;28;20442;-88
2021/10/03 06:58:37;;;;;;;24.03;22.33;;;;;;;;;;5034150;28;20460;-89
2021/10/03 07:01:04;;;;;;;23.67;22.17;;;;;;;;;;5033933;28;20407;-89
2021/10/03 07:03:32;;;;;;;24.07;22.47;;;;;;;;;;5033665;28;20516;-88
2021/10/03 07:05:59;;;;;;;24.23;22.77;;;;;;;;;;5033596;28;20419;-86
2021/10/03 07:08:28;;;;;;;24.27;22.57;;;;;;;;;;5033524;28;20491;-88
2021/10/03 07:10:55;;;;;;;23.07;21.67;;;;;;;;;;5033776;28;20808;-89
2021/10/03 07:13:23;;;;;;;25.07;23.47;;;;;;;;;;5036592;28;20405;-89
2021/10/03 07:15:50;;;;;;;24.13;22.63;;;;;;;;;;5036505;28;20438;-90
2021/10/03 07:18:18;;;;;;;25.10;23.50;;;;;;;;;;5037153;28;20434;-88
2021/10/03 07:20:45;;;;;;;23.87;22.43;;;;;;;;;;5030016;28;20416;-87
2021/10/03 07:23:13;;;;;;;22.97;21.37;;;;;;;;;;5017625;28;20427;-88
2021/10/03 07:25:41;;;;;;;23.40;22.00;;;;;;;;;;5017676;28;20753;-88
2021/10/03 07:28:09;;;;;;;24.77;23.27;;;;;;;;;;5017276;28;20459;-88
2021/10/03 07:30:38;;;;;;;24.73;23.17;;;;;;;;;;5017782;28;20431;-90
2021/10/03 07:33:05;;;;;;;23.43;21.93;;;;;;;;;;5017317;28;20444;-90
2021/10/03 07:35:33;;;;;;;24.57;23.07;;;;;;;;;;5018010;28;20408;-90
2021/10/03 07:38:00;;;;;;;23.70;22.20;;;;;;;;;;5019248;28;20495;-91
2021/10/03 07:40:28;;;;;;;23.67;22.27;;;;;;;;;;5019013;28;20460;-90
2021/10/03 07:42:57;;;;;;;25.37;23.80;;;;;;;;;;5019831;28;20429;-90
2021/10/03 07:45:24;;;;;;;24.40;22.93;;;;;;;;;;5018471;28;20427;-91
2021/10/03 07:47:51;;;;;;;24.13;22.63;;;;;;;;;;5017658;28;20859;-90
2021/10/03 07:50:19;;;;;;;23.97;22.37;;;;;;;;;;5018065;28;20461;-88
2021/10/03 07:52:46;;;;;;;23.50;22.00;;;;;;;;;;5017274;28;20462;-89
2021/10/03 07:55:14;;;;;;;24.50;22.90;;;;;;;;;;5015824;28;20468;-90
2021/10/03 07:57:41;;;;;;;23.40;22.07;;;;;;;;;;5016997;28;20494;-87
2021/10/03 08:00:11;;;;;;;23.70;21.90;;;;;;;;;;5017085;28;20419;-88
2021/10/03 08:02:39;;;;;;;25.63;23.93;;;;;;;;;;5015920;28;20831;-88
2021/10/03 08:05:07;;;;;;;23.77;22.37;;;;;;;;;;5017075;28;20527;-89
2021/10/03 08:07:34;;;;;;;23.97;22.20;;;;;;;;;;5016988;28;20449;-89
2021/10/03 08:10:02;;;;;;;24.83;23.03;;;;;;;;;;5016766;28;20420;-89
2021/10/03 08:12:29;;;;;;;24.07;22.50;;;;;;;;;;5015683;28;20456;-89
2021/10/03 08:14:57;;;;;;;24.57;23.03;;;;;;;;;;5017028;28;20425;-88
2021/10/03 08:17:25;;;;;;;23.60;21.97;;;;;;;;;;5016516;28;20435;-88
2021/10/03 08:19:53;;;;;;;22.97;21.57;;;;;;;;;;5016577;28;20492;-89
2021/10/03 08:22:20;;;;;;;23.23;21.83;;;;;;;;;;5017167;28;20416;-88
2021/10/03 08:24:47;;;;;;;24.80;23.10;;;;;;;;;;5015696;28;20454;-89
2021/10/03 08:27:15;;;;;;;24.20;22.63;;;;;;;;;;5016445;28;20435;-88
2021/10/03 08:29:42;;;;;;;23.30;21.80;;;;;;;;;;5015299;28;20892;-89
2021/10/03 08:32:10;;;;;;;22.47;21.17;;;;;;;;;;5016550;28;20469;-88
2021/10/03 08:34:39;;;;;;;23.10;21.70;;;;;;;;;;5016547;28;20544;-89
2021/10/03 08:37:06;;;;;;;23.33;21.83;;;;;;;;;;5015096;28;20539;-89
2021/10/03 08:39:34;;;;;;;23.00;21.70;;;;;;;;;;5016528;28;20463;-89
2021/10/03 08:42:04;;;;;;;22.90;21.57;;;;;;;;;;5016474;28;20424;-90
2021/10/03 08:44:32;;;;;;;25.07;23.57;;;;;;;;;;5016570;28;20435;-89
2021/10/03 08:46:59;;;;;;;23.10;21.80;;;;;;;;;;5016425;28;20506;-90
2021/10/03 08:49:27;;;;;;;24.03;22.53;;;;;;;;;;5015793;28;20530;-89
2021/10/03 08:51:55;;;;;;;24.17;22.67;;;;;;;;;;5014797;28;20433;-90
2021/10/03 08:54:23;;;;;;;24.43;22.73;;;;;;;;;;5015795;28;20469;-90
2021/10/03 08:56:50;;;;;;;23.57;22.07;;;;;;;;;;5016162;28;20426;-89
2021/10/03 08:59:17;;;;;;;23.93;22.50;;;;;;;;;;5016049;28;20448;-89
2021/10/03 09:01:49;;;;;;;24.00;22.60;;;;;;;;;;5015840;28;20459;-89
2021/10/03 09:04:26;;;;;;;23.03;21.63;;;;;;;;;;5015554;28;20445;-89
2021/10/03 09:07:02;;;;;;;23.30;21.90;;;;;;;;;;5015799;28;20862;-88
2021/10/03 09:09:44;;;;;;;23.73;22.33;;;;;;;;;;5015448;28;20463;-85
2021/10/03 09:12:22;;;;;;;23.17;21.53;;;;;;;;;;5015208;28;20431;-87
2021/10/03 09:14:49;;;;;;;25.03;23.60;;;;;;;;;;5015360;28;20417;-86
2021/10/03 09:17:18;;;;;;;23.27;21.87;;;;;;;;;;5016154;28;20420;-87
2021/10/03 09:20:00;;;;;;;24.57;23.07;;;;;;;;;;5015203;28;21080;-90
2021/10/03 09:22:29;;;;;;;23.90;22.53;;;;;;;;;;5015043;28;20453;-90
2021/10/03 09:24:57;;;;;;;24.70;23.20;;;;;;;;;;5015589;28;20565;-90
2021/10/03 09:27:25;;;;;;;23.60;22.30;;;;;;;;;;5015110;28;20465;-90
2021/10/03 09:30:06;;;;;;;22.93;21.53;;;;;;;;;;5013962;28;20461;-89
2021/10/03 09:32:34;;;;;;;23.30;21.93;;;;;;;;;;5015591;28;20434;-89
2021/10/03 09:35:01;;;;;;;23.27;21.80;;;;;;;;;;5014971;28;20524;-88
2021/10/03 09:37:32;;;;;;;22.30;21.00;;;;;;;;;;5016814;28;20744;-86
2021/10/03 09:40:03;;;;;;;23.83;22.40;;;;;;;;;;5015070;28;20458;-86
2021/10/03 09:42:31;;;;;;;23.67;22.27;;;;;;;;;;5014878;28;20447;-87
2021/10/03 09:45:08;;;;;;;25.00;23.60;;;;;;;;;;5015176;28;20456;-87
2021/10/03 09:47:35;;;;;;;22.50;21.00;;;;;;;;;;5014561;28;20454;-87
2021/10/03 09:50:04;;;;;;;22.13;20.83;;;;;;;;;;5014517;28;20972;-86
2021/10/03 09:52:33;;;;;;;24.03;22.13;;;;;;;;;;5014553;28;20887;-86
2021/10/03 09:55:02;;;;;;;22.53;21.20;;;;;;;;;;5014836;28;20826;-86
2021/10/03 09:57:30;;;;;;;22.27;21.07;;;;;;;;;;5014505;28;20438;-86
2021/10/03 09:59:58;;;;;;;24.27;22.77;;;;;;;;;;5013356;28;20456;-86
2021/10/03 10:02:25;;;;;;;24.37;22.87;;;;;;;;;;5014554;28;20797;-86
2021/10/03 10:04:53;;;;;;;24.00;22.50;;;;;;;;;;5014334;28;20451;-86
2021/10/03 10:07:20;;;;;;;23.90;22.60;;;;;;;;;;5014184;28;20474;-85
2021/10/03 10:09:50;;;;;;;23.83;22.43;;;;;;;;;;5014387;28;20485;-86
2021/10/03 10:12:20;;;;;;;22.70;21.30;;;;;;;;;;5013392;28;20525;-86
2021/10/03 10:14:48;;;;;;;23.77;22.27;;;;;;;;;;5014517;28;20438;-86
2021/10/03 10:17:29;;;;;;;23.77;22.10;;;;;;;;;;5014392;28;20416;-86
2021/10/03 10:19:57;;;;;;;24.27;22.77;;;;;;;;;;5013928;28;20517;-86
2021/10/03 10:22:29;;;;;;;24.40;23.00;;;;;;;;;;5014043;28;20481;-86
2021/10/03 10:24:59;;;;;;;22.80;21.37;;;;;;;;;;5014205;28;20466;-86
2021/10/03 10:27:44;;;;;;;22.80;21.50;;;;;;;;;;5014043;28;20873;-86
2021/10/03 10:30:13;;;;;;;23.40;22.00;;;;;;;;;;5012531;28;21038;-86
2021/10/03 10:32:55;;;;;;;26.30;24.80;;;;;;;;;;5014285;28;20446;-86
2021/10/03 10:35:23;;;;;;;23.47;22.07;;;;;;;;;;5012386;28;20453;-86
2021/10/03 10:38:09;;;;;;;23.53;22.03;;;;;;;;;;5014144;28;20874;-85
2021/10/03 10:40:38;;;;;;;22.97;21.67;;;;;;;;;;5014284;28;20446;-86
2021/10/03 10:43:21;;;;;;;22.97;21.57;;;;;;;;;;5014429;28;20433;-86
2021/10/03 10:45:50;;;;;;;23.10;21.70;;;;;;;;;;5013614;28;21198;-86
2021/10/03 10:48:18;;;;;;;22.67;21.27;;;;;;;;;;5016923;28;20416;-87
2021/10/03 10:51:00;;;;;;;23.40;21.80;;;;;;;;;;5018171;28;20463;-87
2021/10/03 10:53:28;;;;;;;23.00;21.43;;;;;;;;;;5017565;28;20468;-86
2021/10/03 10:56:03;;;;;;;23.90;22.50;;;;;;;;;;5017774;28;20432;-86
2021/10/03 10:58:30;;;;;;;24.40;23.00;;;;;;;;;;5017937;28;20430;-86
2021/10/03 11:01:00;;;;;;;23.63;22.10;;;;;;;;;;5018127;28;20409;-86
2021/10/03 11:03:49;;;;;;;24.30;22.70;;;;;;;;;;5017706;28;20504;-86
2021/10/03 11:06:40;;;;;;;23.40;21.80;;;;;;;;;;5017774;28;20448;-86
2021/10/03 11:09:09;;;;;;;22.60;21.20;;;;;;;;;;5017340;28;20820;-86
2021/10/03 11:11:39;;;;;;;23.17;21.57;;;;;;;;;;5016459;28;20453;-87
2021/10/03 11:14:18;;;;;;;22.20;20.80;;;;;;;;;;5017728;28;20442;-86
2021/10/03 11:16:47;;;;;;;22.77;21.30;;;;;;;;;;5017044;28;20453;-87
2021/10/03 11:19:16;;;;;;;22.57;21.23;;;;;;;;;;5017290;28;20468;-87
2021/10/03 11:21:45;;;;;;;23.23;21.73;;;;;;;;;;5016336;28;20453;-86
2021/10/03 11:24:17;;;;;;;22.40;21.10;;;;;;;;;;5016118;28;20450;-86
2021/10/03 11:26:49;;;;;;;22.10;20.90;;;;;;;;;;5016947;28;20423;-86
2021/10/03 11:29:18;;;;;;;22.23;20.90;;;;;;;;;;5017077;28;20491;-86
2021/10/03 11:31:47;;;;;;;22.83;21.23;;;;;;;;;;5016252;28;20926;-86
2021/10/03 11:34:26;;;;;;;23.50;21.83;;;;;;;;;;5017331;28;20434;-84
2021/10/03 11:36:53;;;;;;;22.60;21.20;;;;;;;;;;5017379;28;20419;-86
2021/10/03 11:39:34;;;;;;;22.60;21.40;;;;;;;;;;5017370;28;20502;-86
2021/10/03 11:42:03;;;;;;;22.67;21.13;;;;;;;;;;5016815;28;20470;-86
2021/10/03 11:44:30;;;;;;;23.10;21.70;;;;;;;;;;5017304;28;20794;-86
2021/10/03 11:46:58;;;;;;;22.70;21.40;;;;;;;;;;5017174;28;20424;-87
2021/10/03 11:49:27;;;;;;;24.20;22.80;;;;;;;;;;5016036;28;20479;-87
2021/10/03 11:51:55;;;;;;;24.20;22.70;;;;;;;;;;5016814;28;20442;-86
2021/10/03 11:54:30;;;;;;;22.90;21.40;;;;;;;;;;5015694;28;20454;-86
2021/10/03 11:56:58;;;;;;;22.53;21.20;;;;;;;;;;5017041;28;20470;-87
2021/10/03 11:59:26;;;;;;;22.30;21.10;;;;;;;;;;5015981;28;20425;-86
2021/10/03 12:01:54;;;;;;;22.83;21.57;;;;;;;;;;5016828;28;20445;-86
2021/10/03 12:04:28;;;;;;;22.80;21.60;;;;;;;;;;5016512;28;20486;-86
2021/10/03 12:06:56;;;;;;;23.83;22.33;;;;;;;;;;5015420;28;20457;-86
2021/10/03 12:09:27;;;;;;;22.80;21.50;;;;;;;;;;5016388;28;20484;-86
2021/10/03 12:11:55;;;;;;;22.40;20.80;;;;;;;;;;5015367;28;20501;-87
2021/10/03 12:14:22;;;;;;;23.33;22.03;;;;;;;;;;5016283;28;20450;-87
2021/10/03 12:16:52;;;;;;;22.40;21.10;;;;;;;;;;5015409;28;20465;-87
2021/10/03 12:19:19;;;;;;;24.00;22.77;;;;;;;;;;5016088;28;20815;-87
2021/10/03 12:21:47;;;;;;;22.73;21.40;;;;;;;;;;5016236;28;20451;-86
2021/10/03 12:24:14;;;;;;;23.17;21.87;;;;;;;;;;5016294;28;20451;-86
2021/10/03 12:26:45;;;;;;;22.70;21.30;;;;;;;;;;5016020;28;20446;-86
2021/10/03 12:29:20;;;;;;;23.77;22.37;;;;;;;;;;5016359;28;20991;-86
2021/10/03 12:31:50;;;;;;;22.67;21.47;;;;;;;;;;5016049;28;20437;-87
2021/10/03 12:34:33;;;;;;;22.47;21.27;;;;;;;;;;5015901;28;20497;-86
2021/10/03 12:37:01;;;;;;;23.73;22.33;;;;;;;;;;5016059;28;20445;-86
2021/10/03 12:39:29;;;;;;;25.13;23.40;;;;;;;;;;5015943;28;20438;-86
2021/10/03 12:41:58;;;;;;;23.70;22.40;;;;;;;;;;5015878;28;20520;-86
2021/10/03 12:44:25;;;;;;;25.00;23.53;;;;;;;;;;5015894;28;20446;-86
2021/10/03 12:46:53;;;;;;;22.30;21.10;;;;;;;;;;5016012;28;20440;-86
2021/10/03 12:49:20;;;;;;;23.60;21.93;;;;;;;;;;5015422;28;20450;-86
2021/10/03 12:51:49;;;;;;;24.03;22.73;;;;;;;;;;5015627;28;20908;-86
2021/10/03 12:54:17;;;;;;;23.27;21.87;;;;;;;;;;5015934;28;20431;-86
2021/10/03 12:56:44;;;;;;;23.50;22.20;;;;;;;;;;5014253;28;20418;-87
2021/10/03 12:59:12;;;;;;;24.00;22.70;;;;;;;;;;5015813;28;20421;-86
2021/10/03 13:01:39;;;;;;;26.20;24.77;;;;;;;;;;5015530;28;20441;-86
2021/10/03 13:04:07;;;;;;;23.50;22.00;;;;;;;;;;5015374;28;20459;-86
2021/10/03 13:06:34;;;;;;;22.77;21.37;;;;;;;;;;5015754;28;20780;-86
2021/10/03 13:09:03;;;;;;;22.70;21.40;;;;;;;;;;5015317;28;20451;-86
2021/10/03 13:11:30;;;;;;;22.93;21.60;;;;;;;;;;5014831;28;20465;-86
2021/10/03 13:13:57;;;;;;;21.90;20.63;;;;;;;;;;5015337;28;20443;-86
2021/10/03 13:16:25;;;;;;;22.40;21.00;;;;;;;;;;5015325;28;20425;-87
2021/10/03 13:18:52;;;;;;;22.73;21.33;;;;;;;;;;5015126;28;20468;-87
2021/10/03 13:21:19;;;;;;;21.87;20.67;;;;;;;;;;5015246;28;20433;-86
2021/10/03 13:23:47;;;;;;;22.23;20.93;;;;;;;;;;5015298;28;20416;-86
2021/10/03 13:26:18;;;;;;;23.17;21.80;;;;;;;;;;5014691;28;20420;-87
2021/10/03 13:28:45;;;;;;;22.17;20.87;;;;;;;;;;5014601;28;20814;-86
2021/10/03 13:31:12;;;;;;;23.40;22.10;;;;;;;;;;5014882;28;20452;-87
2021/10/03 13:33:40;;;;;;;24.37;22.97;;;;;;;;;;5014970;28;20458;-86
2021/10/03 13:36:07;;;;;;;22.90;21.60;;;;;;;;;;5014673;28;20458;-86
2021/10/03 13:38:35;;;;;;;21.90;20.70;;;;;;;;;;5014850;28;20462;-86
2021/10/03 13:41:02;;;;;;;23.30;21.77;;;;;;;;;;5014942;28;20446;-85
2021/10/03 13:43:31;;;;;;;24.13;22.63;;;;;;;;;;5014846;28;20563;-85
2021/10/03 13:45:59;;;;;;;22.90;21.60;;;;;;;;;;5014990;28;20425;-86
2021/10/03 13:48:26;;;;;;;23.20;21.80;;;;;;;;;;5014625;28;20438;-86
2021/10/03 13:50:54;;;;;;;23.20;21.60;;;;;;;;;;5014598;28;20469;-86
2021/10/03 13:53:26;;;;;;;22.80;21.50;;;;;;;;;;5014585;28;20488;-86
2021/10/03 13:55:54;;;;;;;23.27;21.77;;;;;;;;;;5014826;28;20494;-85
2021/10/03 13:58:21;;;;;;;23.10;21.73;;;;;;;;;;5014320;28;20543;-87
2021/10/03 14:00:50;;;;;;;23.40;21.90;;;;;;;;;;5014598;28;20878;-86
2021/10/03 14:03:18;;;;;;;22.90;21.60;;;;;;;;;;5013280;28;20495;-87
2021/10/03 14:05:45;;;;;;;23.73;22.43;;;;;;;;;;5014635;28;20441;-86
2021/10/03 14:08:13;;;;;;;24.07;22.60;;;;;;;;;;5014298;28;20424;-86
2021/10/03 14:10:40;;;;;;;23.90;22.43;;;;;;;;;;5014279;28;20975;-86
2021/10/03 14:13:07;;;;;;;23.57;22.17;;;;;;;;;;5014465;28;20428;-86
2021/10/03 14:15:35;;;;;;;23.70;22.33;;;;;;;;;;5014558;28;20433;-87
2021/10/03 14:18:04;;;;;;;24.93;23.33;;;;;;;;;;5014121;28;20907;-87
2021/10/03 14:20:34;;;;;;;24.47;22.97;;;;;;;;;;5014292;28;20462;-86
2021/10/03 14:23:06;;;;;;;23.90;22.50;;;;;;;;;;5013484;28;20451;-86
2021/10/03 14:25:33;;;;;;;24.17;22.47;;;;;;;;;;5013873;28;20437;-87